Time;durP1;ratioP1;P1;durP2;ratioP2;P2;SDS_P1;SDS_P2;PMS_P1;PMS_P2;Temp;Humidity;BMP_temperature;BMP_pressure;BME280_temperature;BME280_humidity;BME280_pressure;Samples;Min_cycle;Max_cycle;Signal;HPM_P1;HPM_P2
2022/02/01 00:01:41;;;;;;;1.62;0.43;;;;;;;;;;4344270;33;20098;-90
2022/02/01 00:04:28;;;;;;;2.03;0.40;;;;;;;;;;4357051;33;20048;-90
2022/02/01 00:07:09;;;;;;;2.50;0.50;;;;;;;;;;4345973;33;20084;-90
2022/02/01 00:36:44;;;;;;;1.92;0.30;;;;;;;;;;4362715;32;20069;-90
2022/02/01 00:39:15;;;;;;;0.45;0.30;;;;;;;;;;4364091;32;20040;-90
2022/02/01 00:41:52;;;;;;;1.48;0.43;;;;;;;;;;4363665;32;20031;-90
2022/02/01 00:44:21;;;;;;;0.93;0.30;;;;;;;;;;4359962;32;20407;-91
2022/02/01 00:46:50;;;;;;;0.30;0.20;;;;;;;;;;4365006;32;20445;-91
2022/02/01 00:49:19;;;;;;;1.25;0.30;;;;;;;;;;4374107;32;20466;-91
2022/02/01 00:51:47;;;;;;;1.58;0.45;;;;;;;;;;4349530;33;20074;-91
2022/02/01 00:54:17;;;;;;;0.85;0.47;;;;;;;;;;4362873;32;20082;-91
2022/02/01 00:56:45;;;;;;;1.50;0.50;;;;;;;;;;4363231;32;20028;-91
2022/02/01 00:59:14;;;;;;;2.20;0.40;;;;;;;;;;4363012;32;20040;-91
2022/02/01 01:01:43;;;;;;;0.13;0.13;;;;;;;;;;4362162;32;20085;-91
2022/02/01 01:04:12;;;;;;;1.45;0.35;;;;;;;;;;4356850;32;20489;-91
2022/02/01 01:06:40;;;;;;;1.73;0.37;;;;;;;;;;4348175;33;20489;-91
2022/02/01 01:09:10;;;;;;;1.50;0.25;;;;;;;;;;4359147;32;20084;-91
2022/02/01 01:11:38;;;;;;;1.20;0.25;;;;;;;;;;4347425;33;20087;-91
2022/02/01 01:14:43;;;;;;;0.70;0.30;;;;;;;;;;4359365;32;20055;-91
2022/02/01 01:44:57;;;;;;;1.12;0.32;;;;;;;;;;4348267;33;20046;-91
2022/02/01 01:53:13;;;;;;;0.82;0.37;;;;;;;;;;4358857;32;20058;-93
2022/02/01 01:55:49;;;;;;;1.15;0.40;;;;;;;;;;4346714;32;20036;-92
2022/02/01 01:58:20;;;;;;;1.73;0.40;;;;;;;;;;4359214;32;20058;-92
2022/02/01 02:03:23;;;;;;;1.37;0.40;;;;;;;;;;4347938;33;20025;-92
2022/02/01 02:05:52;;;;;;;0.98;0.40;;;;;;;;;;4346800;33;20036;-92
2022/02/01 02:08:20;;;;;;;0.70;0.30;;;;;;;;;;4346309;33;20110;-92
2022/02/01 02:10:58;;;;;;;1.70;0.22;;;;;;;;;;4346395;33;20428;-91
2022/02/01 02:16:01;;;;;;;1.35;0.50;;;;;;;;;;4346874;33;20036;-90
2022/02/01 02:18:32;;;;;;;0.93;0.30;;;;;;;;;;4358665;32;20581;-91
2022/02/01 02:21:02;;;;;;;1.20;0.32;;;;;;;;;;4347825;32;20043;-90
2022/02/01 02:23:31;;;;;;;1.10;0.40;;;;;;;;;;4345707;33;20087;-90
2022/02/01 02:26:02;;;;;;;1.55;0.43;;;;;;;;;;4357609;32;20109;-91
2022/02/01 02:28:33;;;;;;;2.20;0.43;;;;;;;;;;4349086;33;20027;-90
2022/02/01 02:31:01;;;;;;;3.08;0.50;;;;;;;;;;4358297;32;20086;-90
2022/02/01 02:33:32;;;;;;;0.62;0.40;;;;;;;;;;4347352;33;20464;-90
2022/02/01 02:36:10;;;;;;;2.20;0.52;;;;;;;;;;4346855;32;20124;-91
2022/02/01 02:38:44;;;;;;;0.82;0.30;;;;;;;;;;4358879;32;20069;-91
2022/02/01 02:46:41;;;;;;;2.60;0.40;;;;;;;;;;4347401;33;20367;-91
2022/02/01 02:49:10;;;;;;;1.62;0.22;;;;;;;;;;4346747;33;20036;-91
2022/02/01 02:51:40;;;;;;;0.93;0.28;;;;;;;;;;4358918;32;20035;-91
2022/02/01 02:54:13;;;;;;;0.90;0.30;;;;;;;;;;4346597;32;20122;-91
2022/02/01 02:56:44;;;;;;;1.67;0.30;;;;;;;;;;4347917;33;20070;-91
2022/02/01 02:59:13;;;;;;;1.65;0.30;;;;;;;;;;4359144;32;20036;-90
2022/02/01 03:01:46;;;;;;;3.42;0.40;;;;;;;;;;4333802;33;20098;-91
2022/02/01 03:04:16;;;;;;;1.55;0.37;;;;;;;;;;4347438;33;20032;-90
2022/02/01 03:06:47;;;;;;;1.17;0.40;;;;;;;;;;4347093;32;20046;-91
2022/02/01 03:09:16;;;;;;;2.50;0.37;;;;;;;;;;4348427;33;20036;-91
2022/02/01 03:11:46;;;;;;;1.23;0.35;;;;;;;;;;4349048;33;20047;-91
2022/02/01 03:17:01;;;;;;;1.02;0.40;;;;;;;;;;4346092;32;20044;-91
2022/02/01 03:22:19;;;;;;;1.77;0.35;;;;;;;;;;4356570;32;20371;-91
2022/02/01 03:24:49;;;;;;;1.58;0.30;;;;;;;;;;4359772;32;20041;-91
2022/02/01 03:27:19;;;;;;;1.42;0.40;;;;;;;;;;4346000;33;20119;-91
2022/02/01 03:29:49;;;;;;;1.05;0.32;;;;;;;;;;4346821;33;20040;-91
2022/02/01 03:32:20;;;;;;;1.05;0.30;;;;;;;;;;4357664;32;20029;-92
2022/02/01 03:34:50;;;;;;;2.20;0.40;;;;;;;;;;4358572;33;20036;-91
2022/02/01 03:37:20;;;;;;;1.00;0.32;;;;;;;;;;4346995;32;20039;-89
2022/02/01 03:39:49;;;;;;;3.53;0.43;;;;;;;;;;4346508;32;20086;-90
2022/02/01 03:42:20;;;;;;;1.90;0.35;;;;;;;;;;4357340;32;20104;-90
2022/02/01 03:44:49;;;;;;;3.15;0.43;;;;;;;;;;4347015;33;20075;-90
2022/02/01 03:47:18;;;;;;;1.12;0.20;;;;;;;;;;4347282;33;20417;-90
2022/02/01 03:49:47;;;;;;;3.53;0.40;;;;;;;;;;4344550;33;20044;-90
2022/02/01 03:52:17;;;;;;;1.17;0.30;;;;;;;;;;4344560;33;20115;-89
2022/02/01 03:54:45;;;;;;;0.93;0.20;;;;;;;;;;4346275;33;20046;-89
2022/02/01 03:57:15;;;;;;;1.27;0.40;;;;;;;;;;4332950;33;20075;-90
2022/02/01 03:59:44;;;;;;;0.90;0.35;;;;;;;;;;4346397;33;20078;-90
2022/02/01 04:02:14;;;;;;;1.58;0.30;;;;;;;;;;4345689;33;20035;-90
2022/02/01 04:04:47;;;;;;;1.35;0.30;;;;;;;;;;4346998;33;20071;-89
2022/02/01 04:07:15;;;;;;;1.48;0.43;;;;;;;;;;4345520;33;20396;-90
2022/02/01 04:09:44;;;;;;;2.15;0.37;;;;;;;;;;4346106;32;20032;-91
2022/02/01 04:12:13;;;;;;;2.37;0.50;;;;;;;;;;4358468;32;20376;-91
2022/02/01 04:14:43;;;;;;;0.30;0.20;;;;;;;;;;4358166;32;20082;-91
2022/02/01 04:17:13;;;;;;;1.60;0.40;;;;;;;;;;4347787;33;20087;-91
2022/02/01 04:19:43;;;;;;;0.62;0.30;;;;;;;;;;4346474;32;20062;-91
2022/02/01 04:22:14;;;;;;;0.57;0.30;;;;;;;;;;4370843;32;20048;-90
2022/02/01 04:24:45;;;;;;;1.77;0.30;;;;;;;;;;4361096;32;20095;-91
2022/02/01 04:30:05;;;;;;;1.60;0.50;;;;;;;;;;4361167;32;20036;-91
2022/02/01 04:32:35;;;;;;;1.48;0.30;;;;;;;;;;4360094;32;20043;-91
2022/02/01 04:35:06;;;;;;;1.27;0.43;;;;;;;;;;4363381;32;20036;-92
2022/02/01 04:37:36;;;;;;;1.60;0.40;;;;;;;;;;4348264;33;20059;-91
2022/02/01 04:40:07;;;;;;;1.37;0.30;;;;;;;;;;4362868;32;20051;-91
2022/02/01 04:42:38;;;;;;;2.37;0.43;;;;;;;;;;4360697;32;20027;-91
2022/02/01 04:45:09;;;;;;;1.70;0.35;;;;;;;;;;4360859;32;20032;-91
2022/02/01 04:47:39;;;;;;;1.52;0.30;;;;;;;;;;4360387;32;20039;-92
2022/02/01 04:50:12;;;;;;;0.47;0.30;;;;;;;;;;4347417;32;20111;-91
2022/02/01 04:52:44;;;;;;;0.77;0.40;;;;;;;;;;4352389;32;20086;-91
2022/02/01 04:55:14;;;;;;;2.95;0.50;;;;;;;;;;4345131;33;20039;-91
2022/02/01 04:57:55;;;;;;;0.95;0.20;;;;;;;;;;4361278;32;20081;-92
2022/02/01 05:00:25;;;;;;;2.10;0.30;;;;;;;;;;4360211;32;20127;-91
2022/02/01 05:02:55;;;;;;;0.85;0.30;;;;;;;;;;4335907;33;20032;-92
2022/02/01 05:05:29;;;;;;;1.50;0.30;;;;;;;;;;4346120;33;20032;-92
2022/02/01 05:08:08;;;;;;;1.02;0.30;;;;;;;;;;4362337;32;20103;-92
2022/02/01 05:10:37;;;;;;;1.00;0.40;;;;;;;;;;4337168;33;20062;-92
2022/02/01 05:15:47;;;;;;;1.30;0.30;;;;;;;;;;4350974;32;20021;-92
2022/02/01 05:18:21;;;;;;;0.77;0.30;;;;;;;;;;4349087;32;20063;-92
2022/02/01 05:23:24;;;;;;;1.48;0.30;;;;;;;;;;4348857;33;20103;-91
2022/02/01 05:25:53;;;;;;;1.50;0.40;;;;;;;;;;4347294;33;20032;-91
2022/02/01 05:28:22;;;;;;;0.98;0.40;;;;;;;;;;4359897;32;20126;-91
2022/02/01 05:30:55;;;;;;;1.40;0.28;;;;;;;;;;4334222;33;20095;-91
2022/02/01 05:33:23;;;;;;;1.25;0.30;;;;;;;;;;4349665;32;20048;-91
2022/02/01 05:35:53;;;;;;;1.12;0.30;;;;;;;;;;4349140;33;20077;-91
2022/02/01 05:38:21;;;;;;;0.40;0.30;;;;;;;;;;4349108;32;20063;-91
2022/02/01 05:40:50;;;;;;;0.47;0.20;;;;;;;;;;4348594;33;20045;-92
2022/02/01 05:43:23;;;;;;;1.17;0.30;;;;;;;;;;4348355;33;20062;-91
2022/02/01 05:45:53;;;;;;;1.10;0.40;;;;;;;;;;4348108;33;20480;-91
2022/02/01 05:48:24;;;;;;;1.17;0.32;;;;;;;;;;4335397;33;20405;-91
2022/02/01 05:50:54;;;;;;;1.50;0.30;;;;;;;;;;4347505;33;20059;-91
2022/02/01 05:53:24;;;;;;;1.85;0.40;;;;;;;;;;4347837;32;20048;-91
2022/02/01 05:55:53;;;;;;;0.55;0.30;;;;;;;;;;4348125;32;20416;-91
2022/02/01 05:58:22;;;;;;;1.37;0.32;;;;;;;;;;4347811;32;20076;-91
2022/02/01 06:00:51;;;;;;;0.20;0.20;;;;;;;;;;4347615;33;20079;-91
2022/02/01 06:03:21;;;;;;;2.67;0.30;;;;;;;;;;4349470;33;20104;-91
2022/02/01 06:05:50;;;;;;;0.93;0.30;;;;;;;;;;4346673;33;20077;-91
2022/02/01 06:08:18;;;;;;;0.68;0.20;;;;;;;;;;4346565;33;20049;-91
2022/02/01 06:10:48;;;;;;;1.62;0.35;;;;;;;;;;4347715;33;20063;-92
2022/02/01 06:13:17;;;;;;;0.75;0.30;;;;;;;;;;4335995;33;20044;-92
2022/02/01 06:15:45;;;;;;;1.37;0.52;;;;;;;;;;4336140;33;20035;-91
2022/02/01 06:18:15;;;;;;;0.50;0.20;;;;;;;;;;4335279;33;20067;-91
2022/02/01 06:20:44;;;;;;;0.95;0.40;;;;;;;;;;4346740;33;20048;-91
2022/02/01 06:23:16;;;;;;;1.65;0.30;;;;;;;;;;4352408;32;20073;-91
2022/02/01 06:25:53;;;;;;;1.00;0.30;;;;;;;;;;4351288;33;20158;-91
2022/02/01 06:28:23;;;;;;;0.98;0.32;;;;;;;;;;4351431;32;20158;-92
2022/02/01 06:30:53;;;;;;;1.37;0.40;;;;;;;;;;4361458;33;20052;-91
2022/02/01 06:33:22;;;;;;;1.00;0.40;;;;;;;;;;4349752;33;20129;-91
2022/02/01 06:35:52;;;;;;;1.00;0.52;;;;;;;;;;4360916;32;20055;-92
2022/02/01 06:38:22;;;;;;;1.95;0.40;;;;;;;;;;4361990;33;20054;-91
2022/02/01 06:40:51;;;;;;;0.73;0.20;;;;;;;;;;4361255;32;20031;-91
2022/02/01 06:43:21;;;;;;;0.28;0.28;;;;;;;;;;4361721;32;20403;-91
2022/02/01 06:45:52;;;;;;;1.87;0.30;;;;;;;;;;4362142;32;20043;-92
2022/02/01 06:48:21;;;;;;;1.10;0.47;;;;;;;;;;4350913;33;20481;-92
2022/02/01 06:50:52;;;;;;;2.25;0.30;;;;;;;;;;4362688;32;20082;-92
2022/02/01 06:53:22;;;;;;;1.50;0.30;;;;;;;;;;4338635;33;20071;-92
2022/02/01 06:56:07;;;;;;;1.33;0.20;;;;;;;;;;4363256;32;20462;-92
2022/02/01 06:58:36;;;;;;;1.87;0.30;;;;;;;;;;4362553;32;20081;-92
2022/02/01 07:01:05;;;;;;;0.20;0.20;;;;;;;;;;4363012;32;20069;-93
2022/02/01 07:03:36;;;;;;;1.65;0.22;;;;;;;;;;4351169;33;20035;-92
2022/02/01 07:06:11;;;;;;;0.62;0.30;;;;;;;;;;4363367;33;20040;-92
2022/02/01 07:08:42;;;;;;;1.10;0.20;;;;;;;;;;4350349;33;20428;-92
2022/02/01 07:11:17;;;;;;;0.77;0.20;;;;;;;;;;4351295;33;20043;-92
2022/02/01 07:13:47;;;;;;;0.95;0.30;;;;;;;;;;4362728;32;20055;-92
2022/02/01 07:16:18;;;;;;;0.40;0.20;;;;;;;;;;4349880;33;20074;-92
2022/02/01 07:18:51;;;;;;;0.60;0.30;;;;;;;;;;4363567;32;20094;-92
2022/02/01 07:21:22;;;;;;;1.02;0.22;;;;;;;;;;4349033;33;20399;-92
2022/02/01 07:23:53;;;;;;;2.10;0.28;;;;;;;;;;4360824;32;20059;-92
2022/02/01 07:26:23;;;;;;;0.68;0.30;;;;;;;;;;4361675;32;20055;-92
2022/02/01 07:28:52;;;;;;;1.00;0.30;;;;;;;;;;4360467;32;20091;-92
2022/02/01 07:31:20;;;;;;;1.90;0.40;;;;;;;;;;4360404;32;20056;-92
2022/02/01 07:33:50;;;;;;;0.35;0.10;;;;;;;;;;4361365;32;20106;-92
2022/02/01 07:36:18;;;;;;;0.93;0.25;;;;;;;;;;4361298;32;20089;-91
2022/02/01 07:38:47;;;;;;;0.40;0.20;;;;;;;;;;4360262;32;20039;-92
2022/02/01 07:41:16;;;;;;;1.45;0.30;;;;;;;;;;4361074;32;20073;-92
2022/02/01 07:43:45;;;;;;;0.40;0.20;;;;;;;;;;4360103;32;20126;-92
2022/02/01 07:46:15;;;;;;;1.30;0.20;;;;;;;;;;4348636;32;20078;-92
2022/02/01 07:48:45;;;;;;;0.77;0.30;;;;;;;;;;4360619;32;20055;-92
2022/02/01 07:51:14;;;;;;;0.50;0.15;;;;;;;;;;4347333;33;20043;-91
2022/02/01 07:53:43;;;;;;;0.80;0.20;;;;;;;;;;4360068;32;20031;-92
2022/02/01 07:56:13;;;;;;;0.55;0.20;;;;;;;;;;4348045;33;20091;-92
2022/02/01 07:58:42;;;;;;;0.62;0.30;;;;;;;;;;4360935;32;20076;-92
2022/02/01 08:01:10;;;;;;;0.10;0.10;;;;;;;;;;4360592;32;20100;-92
2022/02/01 08:03:40;;;;;;;0.73;0.20;;;;;;;;;;4335994;33;20086;-92
2022/02/01 08:06:09;;;;;;;0.45;0.17;;;;;;;;;;4348503;32;20090;-92
2022/02/01 08:08:37;;;;;;;0.65;0.13;;;;;;;;;;4360288;33;20065;-92
2022/02/01 08:11:11;;;;;;;1.02;0.10;;;;;;;;;;4361581;32;20090;-92
2022/02/01 08:16:47;;;;;;;0.40;0.20;;;;;;;;;;4362347;32;20383;-92
2022/02/01 08:19:35;;;;;;;1.50;0.20;;;;;;;;;;4360482;32;20047;-92
2022/02/01 08:22:26;;;;;;;0.73;0.10;;;;;;;;;;4359683;32;20040;-92
2022/02/01 08:24:55;;;;;;;0.32;0.20;;;;;;;;;;4347626;33;20048;-92
2022/02/01 08:27:25;;;;;;;1.08;0.20;;;;;;;;;;4359719;32;20036;-92
2022/02/01 08:29:53;;;;;;;0.20;0.20;;;;;;;;;;4361213;33;20032;-92
2022/02/01 08:32:26;;;;;;;1.23;0.30;;;;;;;;;;4348385;33;20071;-92
2022/02/01 08:35:00;;;;;;;0.57;0.10;;;;;;;;;;4348902;33;20067;-92
2022/02/01 08:37:29;;;;;;;0.65;0.20;;;;;;;;;;4347842;33;20400;-91
2022/02/01 08:39:58;;;;;;;0.65;0.20;;;;;;;;;;4360759;32;20044;-93
2022/02/01 08:42:29;;;;;;;1.55;0.20;;;;;;;;;;4363008;32;20122;-92
2022/02/01 08:44:58;;;;;;;0.75;0.32;;;;;;;;;;4351196;33;20064;-92
2022/02/01 08:47:27;;;;;;;0.60;0.17;;;;;;;;;;4351231;33;20066;-92
2022/02/01 08:49:57;;;;;;;1.17;0.20;;;;;;;;;;4350689;33;20408;-92
2022/02/01 08:52:35;;;;;;;0.40;0.20;;;;;;;;;;4363442;32;20036;-92
2022/02/01 08:55:07;;;;;;;1.17;0.20;;;;;;;;;;4365775;32;20400;-91
2022/02/01 08:57:36;;;;;;;0.50;0.20;;;;;;;;;;4363308;32;20058;-92
2022/02/01 09:00:07;;;;;;;1.30;0.20;;;;;;;;;;4364660;32;20078;-93
2022/02/01 09:02:37;;;;;;;1.25;0.30;;;;;;;;;;4339614;33;20078;-92
2022/02/01 09:05:06;;;;;;;1.00;0.28;;;;;;;;;;4363260;32;20066;-92
2022/02/01 09:07:35;;;;;;;1.12;0.20;;;;;;;;;;4363244;33;20078;-92
2022/02/01 09:10:04;;;;;;;2.92;0.30;;;;;;;;;;4363849;32;20036;-92
2022/02/01 09:12:33;;;;;;;3.22;0.25;;;;;;;;;;4362808;32;20079;-92
2022/02/01 09:15:02;;;;;;;1.30;0.30;;;;;;;;;;4347733;33;20074;-91
2022/02/01 09:17:51;;;;;;;3.20;0.30;;;;;;;;;;4364297;32;20028;-92
2022/02/01 09:20:26;;;;;;;0.93;0.20;;;;;;;;;;4363356;32;20051;-92
2022/02/01 09:22:56;;;;;;;0.43;0.30;;;;;;;;;;4359309;32;20044;-92
2022/02/01 09:25:26;;;;;;;2.65;0.40;;;;;;;;;;4347623;33;20448;-91
2022/02/01 09:27:54;;;;;;;1.20;0.37;;;;;;;;;;4348458;32;20100;-91
2022/02/01 09:30:24;;;;;;;1.15;0.30;;;;;;;;;;4347485;32;20043;-92
2022/02/01 09:32:53;;;;;;;1.25;0.25;;;;;;;;;;4361621;32;20495;-92
2022/02/01 09:35:24;;;;;;;1.02;0.35;;;;;;;;;;4366733;32;20058;-92
2022/02/01 09:37:52;;;;;;;1.12;0.30;;;;;;;;;;4360011;32;20080;-92
2022/02/01 09:40:42;;;;;;;2.75;0.47;;;;;;;;;;4374359;32;20438;-92
2022/02/01 09:43:12;;;;;;;2.28;0.30;;;;;;;;;;4363965;32;20055;-92
2022/02/01 09:45:42;;;;;;;1.92;0.40;;;;;;;;;;4348865;33;20141;-91
2022/02/01 09:48:32;;;;;;;3.00;0.37;;;;;;;;;;4348399;33;20392;-92
2022/02/01 09:51:04;;;;;;;0.30;0.20;;;;;;;;;;4348943;33;20046;-92
2022/02/01 09:53:33;;;;;;;1.37;0.25;;;;;;;;;;4335466;33;20047;-92
2022/02/01 09:56:03;;;;;;;0.80;0.30;;;;;;;;;;4350420;32;20087;-92
2022/02/01 09:58:35;;;;;;;1.23;0.30;;;;;;;;;;4347953;33;20368;-92
2022/02/01 10:01:17;;;;;;;1.65;0.32;;;;;;;;;;4345975;33;20093;-92
2022/02/01 10:03:47;;;;;;;1.48;0.40;;;;;;;;;;4362316;33;20044;-92
2022/02/01 10:06:37;;;;;;;3.25;0.50;;;;;;;;;;4363030;32;20040;-92
2022/02/01 10:09:26;;;;;;;3.83;0.52;;;;;;;;;;4362409;33;20056;-91
2022/02/01 10:11:55;;;;;;;2.85;0.60;;;;;;;;;;4362344;32;20086;-92
2022/02/01 10:14:27;;;;;;;1.15;0.37;;;;;;;;;;4361759;32;20028;-92
2022/02/01 10:17:00;;;;;;;2.83;0.55;;;;;;;;;;4362465;32;20048;-91
2022/02/01 10:19:28;;;;;;;2.87;0.45;;;;;;;;;;4363488;32;20058;-92
2022/02/01 10:21:59;;;;;;;2.25;0.60;;;;;;;;;;4349876;33;20043;-91
2022/02/01 10:24:35;;;;;;;4.05;0.60;;;;;;;;;;4361274;32;20388;-91
2022/02/01 10:27:27;;;;;;;3.10;0.40;;;;;;;;;;4360559;32;20052;-91
2022/02/01 10:35:34;;;;;;;2.10;0.50;;;;;;;;;;4364263;32;20027;-91
2022/02/01 10:38:05;;;;;;;3.83;0.60;;;;;;;;;;4362395;32;20044;-91
2022/02/01 10:40:37;;;;;;;1.33;0.47;;;;;;;;;;4364886;32;20059;-91
2022/02/01 10:43:30;;;;;;;4.28;0.70;;;;;;;;;;4351262;33;20055;-90
2022/02/01 10:46:10;;;;;;;1.12;0.60;;;;;;;;;;4364412;32;20028;-90
2022/02/01 10:48:52;;;;;;;3.60;0.70;;;;;;;;;;4361154;32;20105;-91
2022/02/01 10:51:22;;;;;;;2.65;0.50;;;;;;;;;;4361946;32;20082;-91
2022/02/01 10:53:54;;;;;;;2.60;0.77;;;;;;;;;;4360451;32;20544;-91
2022/02/01 10:56:23;;;;;;;1.90;0.52;;;;;;;;;;4361374;33;20094;-90
2022/02/01 10:58:54;;;;;;;3.58;0.50;;;;;;;;;;4348594;33;20463;-90
2022/02/01 11:01:25;;;;;;;3.90;0.93;;;;;;;;;;4361049;32;20047;-90
2022/02/01 12:05:32;;;;;;;15.13;2.05;;;;;;;;;;4361239;32;20070;-91
2022/02/01 12:27:00;;;;;;;10.38;2.12;;;;;;;;;;4375290;32;20024;-91
2022/02/01 12:29:29;;;;;;;15.15;2.40;;;;;;;;;;4394825;32;20046;-93
2022/02/01 12:32:05;;;;;;;12.93;2.33;;;;;;;;;;4393795;32;20061;-90
2022/02/01 12:34:37;;;;;;;17.65;2.42;;;;;;;;;;4380549;32;20039;-92
2022/02/01 12:37:05;;;;;;;20.23;2.17;;;;;;;;;;4395894;32;20353;-92
2022/02/01 12:39:36;;;;;;;11.50;2.33;;;;;;;;;;4368193;32;20104;-91
2022/02/01 12:42:13;;;;;;;13.52;2.33;;;;;;;;;;4394377;32;20054;-92
2022/02/01 12:47:21;;;;;;;19.10;3.22;;;;;;;;;;4367946;32;20203;-92
2022/02/01 12:50:13;;;;;;;19.33;2.28;;;;;;;;;;4372308;32;20050;-92
2022/02/01 12:52:42;;;;;;;14.27;2.55;;;;;;;;;;4397290;32;20031;-92
2022/02/01 12:55:15;;;;;;;18.20;2.87;;;;;;;;;;4381889;32;20092;-92
2022/02/01 12:58:06;;;;;;;20.52;2.62;;;;;;;;;;4381545;32;20379;-92
2022/02/01 13:00:36;;;;;;;13.35;2.42;;;;;;;;;;4368347;32;20092;-92
2022/02/01 13:03:05;;;;;;;11.90;2.47;;;;;;;;;;4393489;32;20062;-92
2022/02/01 13:05:35;;;;;;;13.50;2.35;;;;;;;;;;4377344;32;20039;-92
2022/02/01 13:08:37;;;;;;;18.50;2.72;;;;;;;;;;4368229;32;20044;-92
2022/02/01 13:14:26;;;;;;;16.98;2.50;;;;;;;;;;4393424;32;20084;-92
2022/02/01 13:16:47;;;;;;;19.55;2.80;;;;;;;;;;4368743;32;20047;-93
2022/02/01 13:22:11;;;;;;;15.23;2.22;;;;;;;;;;4397359;32;20038;-93
2022/02/01 13:24:41;;;;;;;17.00;2.87;;;;;;;;;;4381865;32;20390;-93
2022/02/01 13:27:16;;;;;;;14.80;2.53;;;;;;;;;;4368283;32;20092;-93
2022/02/01 13:29:56;;;;;;;18.17;2.67;;;;;;;;;;4381692;32;20068;-93
2022/02/01 13:32:36;;;;;;;15.15;2.85;;;;;;;;;;4395925;32;20053;-93
2022/02/01 13:35:12;;;;;;;16.45;2.60;;;;;;;;;;4368233;32;20392;-93
2022/02/01 13:37:46;;;;;;;17.48;2.40;;;;;;;;;;4368924;32;20058;-91
2022/02/01 13:40:15;;;;;;;;;;;;;;;;;;4393535;32;20433;-91
2022/02/01 13:42:44;;;;;;;14.52;2.80;;;;;;;;;;4355333;32;20270;-92
2022/02/01 13:45:14;;;;;;;15.77;2.58;;;;;;;;;;4361761;33;20162;-92
2022/02/01 13:47:44;;;;;;;12.95;2.53;;;;;;;;;;4362715;32;20115;-92
2022/02/01 13:50:18;;;;;;;19.55;3.10;;;;;;;;;;4378062;32;20071;-92
2022/02/01 13:52:58;;;;;;;12.27;2.17;;;;;;;;;;4352575;32;20328;-92
2022/02/01 13:55:29;;;;;;;12.37;2.30;;;;;;;;;;4351829;32;20031;-92
2022/02/01 13:58:09;;;;;;;17.37;2.08;;;;;;;;;;4364955;32;20066;-92
2022/02/01 14:00:40;;;;;;;9.13;1.48;;;;;;;;;;4371026;32;20065;-91
2022/02/01 14:06:02;;;;;;;9.48;2.40;;;;;;;;;;4361306;32;20053;-91
2022/02/01 14:08:40;;;;;;;14.27;1.92;;;;;;;;;;4326450;33;20375;-92
2022/02/01 14:35:54;;;;;;;8.68;1.48;;;;;;;;;;4360213;32;20071;-91
2022/02/01 14:38:38;;;;;;;5.03;1.08;;;;;;;;;;4353758;32;20047;-91
2022/02/01 14:44:28;;;;;;;5.68;0.93;;;;;;;;;;4366586;32;20073;-91
2022/02/01 14:46:50;;;;;;;6.55;1.02;;;;;;;;;;4365058;32;20062;-92
2022/02/01 14:49:23;;;;;;;7.05;1.05;;;;;;;;;;4376962;32;20382;-90
2022/02/01 14:51:57;;;;;;;4.70;1.02;;;;;;;;;;4378817;32;20059;-93
2022/02/01 14:54:34;;;;;;;7.12;0.95;;;;;;;;;;4351174;32;20375;-92
2022/02/01 15:13:49;;;;;;;7.68;1.00;;;;;;;;;;4374974;32;20063;-92
2022/02/01 15:16:28;;;;;;;5.05;0.98;;;;;;;;;;4364587;32;20054;-93
2022/02/01 15:18:58;;;;;;;6.07;0.93;;;;;;;;;;4352811;32;20374;-93
2022/02/01 15:21:28;;;;;;;8.25;0.90;;;;;;;;;;4372657;32;20427;-94
2022/02/01 15:24:01;;;;;;;6.53;1.00;;;;;;;;;;4363575;32;20104;-93
2022/02/01 15:26:29;;;;;;;4.15;0.93;;;;;;;;;;4363158;32;20110;-93
2022/02/01 15:28:59;;;;;;;3.75;0.80;;;;;;;;;;4363891;32;20081;-93
2022/02/01 15:31:29;;;;;;;4.65;0.88;;;;;;;;;;4361962;32;20039;-92
2022/02/01 15:33:58;;;;;;;3.53;0.60;;;;;;;;;;4378629;32;20061;-92
2022/02/01 15:36:33;;;;;;;5.22;0.70;;;;;;;;;;4365012;32;20047;-91
2022/02/01 15:56:45;;;;;;;2.17;0.70;;;;;;;;;;4391046;32;20365;-91
2022/02/01 15:59:10;;;;;;;1.50;0.60;;;;;;;;;;4390112;32;20027;-91
2022/02/01 16:02:10;;;;;;;3.62;0.60;;;;;;;;;;4379528;32;20173;-91
2022/02/01 16:04:42;;;;;;;3.47;0.62;;;;;;;;;;4387073;32;20035;-92
2022/02/01 16:07:15;;;;;;;2.80;0.68;;;;;;;;;;4362390;32;20027;-92
2022/02/01 16:10:21;;;;;;;2.35;0.60;;;;;;;;;;4387442;32;20101;-92
2022/02/01 16:12:54;;;;;;;3.90;0.55;;;;;;;;;;4374205;32;20077;-91
2022/02/01 16:15:23;;;;;;;4.62;0.90;;;;;;;;;;4368944;32;20078;-92
2022/02/01 16:17:52;;;;;;;2.70;0.90;;;;;;;;;;4372015;32;20050;-91
2022/02/01 16:20:21;;;;;;;3.20;0.60;;;;;;;;;;4361875;32;20043;-92
2022/02/01 16:22:50;;;;;;;3.05;0.62;;;;;;;;;;4371186;32;20438;-92
2022/02/01 16:25:19;;;;;;;3.25;0.55;;;;;;;;;;4350416;32;20047;-93
2022/02/01 16:27:48;;;;;;;2.35;0.50;;;;;;;;;;4351071;32;20496;-92
2022/02/01 16:30:23;;;;;;;3.60;0.65;;;;;;;;;;4346733;33;20337;-92
2022/02/01 16:32:52;;;;;;;4.03;0.90;;;;;;;;;;4360216;33;20027;-92
2022/02/01 16:35:21;;;;;;;2.10;0.60;;;;;;;;;;4343902;33;20093;-92
2022/02/01 16:37:50;;;;;;;2.70;0.62;;;;;;;;;;4335016;33;20043;-92
2022/02/01 16:40:22;;;;;;;1.85;0.50;;;;;;;;;;4362159;33;20458;-92
2022/02/01 16:42:52;;;;;;;4.37;0.70;;;;;;;;;;4335500;33;20458;-92
2022/02/01 16:45:24;;;;;;;4.55;0.68;;;;;;;;;;4347916;33;20040;-93
2022/02/01 16:48:13;;;;;;;2.67;0.62;;;;;;;;;;4349792;33;20115;-92
2022/02/01 16:50:43;;;;;;;2.83;0.77;;;;;;;;;;4360435;33;20400;-92
2022/02/01 16:53:21;;;;;;;2.20;0.52;;;;;;;;;;4359612;33;20062;-93
2022/02/01 16:56:07;;;;;;;3.30;0.60;;;;;;;;;;4360631;33;20036;-91
2022/02/01 16:59:07;;;;;;;1.60;0.60;;;;;;;;;;4367380;32;20057;-91
2022/02/01 17:01:36;;;;;;;3.53;0.80;;;;;;;;;;4362003;32;20407;-90
2022/02/01 17:04:06;;;;;;;1.70;0.50;;;;;;;;;;4356595;33;20085;-90
2022/02/01 17:06:35;;;;;;;1.73;0.50;;;;;;;;;;4348776;33;20133;-89
2022/02/01 17:09:08;;;;;;;1.70;0.50;;;;;;;;;;4359512;32;20031;-90
2022/02/01 17:17:01;;;;;;;2.35;0.60;;;;;;;;;;4372658;32;20048;-90
2022/02/01 17:22:17;;;;;;;1.85;0.60;;;;;;;;;;4377465;32;20044;-90
2022/02/01 17:24:47;;;;;;;2.12;0.30;;;;;;;;;;4377215;32;20031;-90
2022/02/01 17:27:15;;;;;;;3.58;0.70;;;;;;;;;;4377428;32;20101;-90
2022/02/01 17:29:45;;;;;;;2.90;0.70;;;;;;;;;;4378837;32;20074;-90
2022/02/01 17:32:13;;;;;;;3.37;0.73;;;;;;;;;;4363689;32;20066;-90
2022/02/01 17:34:42;;;;;;;4.43;0.50;;;;;;;;;;4376999;32;20058;-90
2022/02/01 17:37:11;;;;;;;3.45;0.73;;;;;;;;;;4364044;32;20077;-90
2022/02/01 17:39:40;;;;;;;2.17;0.40;;;;;;;;;;4351677;32;20055;-90
2022/02/01 17:42:09;;;;;;;1.58;0.37;;;;;;;;;;4377713;32;20402;-90
2022/02/01 17:44:39;;;;;;;2.35;0.47;;;;;;;;;;4365152;32;20045;-90
2022/02/01 17:47:08;;;;;;;1.75;0.30;;;;;;;;;;4363923;32;20332;-90
2022/02/01 17:49:38;;;;;;;3.12;0.50;;;;;;;;;;4351936;32;20039;-90
2022/02/01 17:52:30;;;;;;;2.33;0.43;;;;;;;;;;4377610;32;20035;-90
2022/02/01 17:54:58;;;;;;;1.83;0.50;;;;;;;;;;4363884;32;20094;-89
2022/02/01 17:57:28;;;;;;;1.42;0.50;;;;;;;;;;4377232;32;20031;-90
2022/02/01 17:59:56;;;;;;;1.00;0.50;;;;;;;;;;4364337;32;20061;-90
2022/02/01 18:02:25;;;;;;;1.98;0.43;;;;;;;;;;4363634;32;20406;-89
2022/02/01 18:04:55;;;;;;;2.67;0.65;;;;;;;;;;4363534;32;20082;-89
2022/02/01 18:07:23;;;;;;;1.12;0.30;;;;;;;;;;4376889;32;20065;-89
2022/02/01 18:09:55;;;;;;;1.80;0.40;;;;;;;;;;4377878;32;20039;-89
2022/02/01 18:12:47;;;;;;;2.03;0.52;;;;;;;;;;4379488;32;20195;-89
2022/02/01 18:15:16;;;;;;;1.50;0.40;;;;;;;;;;4379027;32;20036;-89
2022/02/01 18:17:45;;;;;;;2.65;0.40;;;;;;;;;;4378762;32;20131;-89
2022/02/01 18:20:18;;;;;;;0.65;0.40;;;;;;;;;;4364191;32;20054;-89
2022/02/01 18:22:47;;;;;;;0.98;0.28;;;;;;;;;;4377872;32;20103;-89
2022/02/01 18:25:18;;;;;;;3.15;0.30;;;;;;;;;;4375501;32;20154;-89
2022/02/01 18:27:53;;;;;;;0.85;0.45;;;;;;;;;;4351452;32;20078;-89
2022/02/01 18:30:29;;;;;;;3.03;0.40;;;;;;;;;;4376845;32;20057;-90
2022/02/01 18:32:58;;;;;;;1.35;0.40;;;;;;;;;;4377301;32;20106;-90
2022/02/01 18:35:28;;;;;;;2.67;0.40;;;;;;;;;;4365818;32;20040;-90
2022/02/01 18:38:08;;;;;;;0.85;0.32;;;;;;;;;;4363381;32;20044;-90
2022/02/01 18:40:39;;;;;;;0.98;0.35;;;;;;;;;;4379259;32;20061;-90
2022/02/01 18:43:12;;;;;;;0.55;0.22;;;;;;;;;;4351084;32;20090;-90
2022/02/01 18:45:45;;;;;;;1.13;0.37;;;;;;;;;;4353659;32;20115;-91
2022/02/01 18:48:14;;;;;;;0.93;0.30;;;;;;;;;;4379196;32;20036;-90
2022/02/01 18:50:55;;;;;;;0.82;0.35;;;;;;;;;;4364050;32;20035;-91
2022/02/01 18:58:41;;;;;;;2.97;0.30;;;;;;;;;;4363435;32;20039;-90
2022/02/01 19:05:19;;;;;;;0.95;0.30;;;;;;;;;;4363659;32;20032;-91
2022/02/01 19:07:28;;;;;;;1.73;0.20;;;;;;;;;;4367255;32;20054;-91
2022/02/01 19:12:50;;;;;;;1.98;0.20;;;;;;;;;;4352467;32;20133;-91
2022/02/01 19:15:19;;;;;;;0.80;0.30;;;;;;;;;;4363237;32;20067;-90
2022/02/01 19:17:50;;;;;;;0.57;0.20;;;;;;;;;;4376761;32;20036;-90
2022/02/01 19:20:19;;;;;;;1.02;0.40;;;;;;;;;;4377231;32;20035;-91
2022/02/01 19:22:49;;;;;;;2.62;0.20;;;;;;;;;;4377347;32;20059;-92
2022/02/01 19:25:25;;;;;;;1.52;0.30;;;;;;;;;;4362388;32;20074;-91
2022/02/01 19:27:56;;;;;;;2.45;0.30;;;;;;;;;;4376541;32;20054;-91
2022/02/01 19:30:25;;;;;;;1.05;0.30;;;;;;;;;;4347441;32;20356;-91
2022/02/01 19:33:00;;;;;;;0.60;0.20;;;;;;;;;;4376275;32;20028;-91
2022/02/01 19:35:30;;;;;;;1.17;0.40;;;;;;;;;;4363173;32;20100;-90
2022/02/01 19:38:02;;;;;;;2.20;0.20;;;;;;;;;;4361108;32;20100;-91
2022/02/01 19:40:33;;;;;;;0.17;0.10;;;;;;;;;;4365467;32;20043;-90